Time;durP1;ratioP1;P1;durP2;ratioP2;P2;SDS_P1;SDS_P2;PMS_P1;PMS_P2;Temp;Humidity;BMP_temperature;BMP_pressure;BME280_temperature;BME280_humidity;BME280_pressure;Samples;Min_cycle;Max_cycle;Signal;HPM_P1;HPM_P2
2021/11/12 00:03:15;;;;;;;1.77;1.30;;;10.80;99.90;;;;;;5018114;28;20714;-93
2021/11/12 00:16:54;;;;;;;4.00;0.87;;;10.90;99.90;;;;;;5026540;28;20213;-92
2021/11/12 00:19:26;;;;;;;2.77;0.90;;;10.90;99.90;;;;;;5021509;28;20230;-93
2021/11/12 00:21:58;;;;;;;1.23;0.90;;;10.90;99.90;;;;;;5009689;28;20215;-93
2021/11/12 00:24:29;;;;;;;1.10;1.00;;;10.90;99.90;;;;;;5020500;28;20217;-91
2021/11/12 00:27:04;;;;;;;1.20;1.03;;;10.80;99.90;;;;;;5027515;28;20201;-92
2021/11/12 00:29:40;;;;;;;1.17;1.07;;;10.80;99.90;;;;;;5013749;28;20253;-94
2021/11/12 00:35:10;;;;;;;2.53;0.90;;;10.80;99.90;;;;;;4926643;29;20639;-92
2021/11/12 00:37:56;;;;;;;0.77;0.67;;;10.80;99.90;;;;;;4937157;29;20233;-91
2021/11/12 00:40:43;;;;;;;3.77;0.90;;;10.80;99.90;;;;;;4934596;29;20229;-93
2021/11/12 00:43:31;;;;;;;2.10;0.80;;;10.80;99.90;;;;;;4931898;29;20216;-92
2021/11/12 00:46:12;;;;;;;0.73;0.70;;;10.80;99.90;;;;;;4920598;29;20212;-88
2021/11/12 00:48:47;;;;;;;6.57;1.10;;;10.90;99.90;;;;;;4934080;29;20197;-88
2021/11/12 00:51:23;;;;;;;2.50;1.00;;;10.80;99.90;;;;;;4928195;29;20236;-86
2021/11/12 00:54:05;;;;;;;1.87;1.30;;;10.70;99.90;;;;;;4930669;29;20670;-88
2021/11/12 00:56:38;;;;;;;1.87;1.40;;;10.60;99.90;;;;;;4928589;28;20201;-88
2021/11/12 00:59:12;;;;;;;1.87;1.47;;;10.60;99.90;;;;;;4921645;29;20256;-89
2021/11/12 01:01:44;;;;;;;11.90;3.00;;;10.60;99.90;;;;;;4924429;29;20232;-88
2021/11/12 01:04:18;;;;;;;13.90;2.27;;;10.60;99.90;;;;;;4937195;29;20219;-88
2021/11/12 01:06:51;;;;;;;11.20;1.93;;;10.60;99.90;;;;;;4934514;29;20212;-85
2021/11/12 01:09:23;;;;;;;7.47;1.90;;;10.60;99.90;;;;;;4935933;29;20213;-89
2021/11/12 01:11:54;;;;;;;13.40;2.17;;;10.70;99.90;;;;;;4923279;29;20252;-89
2021/11/12 01:14:28;;;;;;;17.10;2.73;;;10.60;99.90;;;;;;4920488;29;20209;-90
2021/11/12 01:16:59;;;;;;;19.73;2.20;;;10.60;99.90;;;;;;4922712;29;20273;-89
2021/11/12 01:19:30;;;;;;;13.80;1.37;;;10.70;99.90;;;;;;4923254;29;20237;-90
2021/11/12 01:22:02;;;;;;;16.20;2.10;;;10.70;99.90;;;;;;4923766;29;20201;-89
2021/11/12 01:24:35;;;;;;;10.60;2.23;;;10.70;99.90;;;;;;4923798;29;20201;-88
2021/11/12 01:27:07;;;;;;;16.90;1.97;;;10.70;99.90;;;;;;4922811;29;20241;-89
2021/11/12 01:29:41;;;;;;;5.97;2.00;;;10.70;99.90;;;;;;4905328;29;20309;-89
2021/11/12 01:32:22;;;;;;;4.70;1.97;;;10.70;99.90;;;;;;4914586;29;20312;-89
2021/11/12 01:34:55;;;;;;;2.30;1.30;;;10.70;99.90;;;;;;4911617;29;20303;-89
2021/11/12 01:37:28;;;;;;;2.10;1.20;;;10.70;99.90;;;;;;4923871;29;20241;-90
2021/11/12 01:40:01;;;;;;;1.30;1.20;;;10.60;99.90;;;;;;4923861;29;20268;-89
2021/11/12 01:43:00;;;;;;;1.53;1.23;;;10.60;99.90;;;;;;4905037;29;20220;-89
2021/11/12 01:46:01;;;;;;;2.13;1.40;;;10.60;99.90;;;;;;4918335;29;20241;-89
2021/11/12 01:48:54;;;;;;;2.70;2.43;;;10.60;99.90;;;;;;4924336;29;20219;-89
2021/11/12 01:51:36;;;;;;;2.33;2.10;;;10.70;99.90;;;;;;4923730;29;20260;-90
2021/11/12 01:54:23;;;;;;;3.03;2.37;;;10.70;99.90;;;;;;4927178;29;20205;-88
2021/11/12 01:57:20;;;;;;;2.10;1.90;;;10.70;99.90;;;;;;4925203;29;20205;-88
2021/11/12 01:59:52;;;;;;;2.20;1.90;;;10.80;99.90;;;;;;4926784;29;20232;-90
2021/11/12 02:02:27;;;;;;;2.50;1.90;;;10.80;99.90;;;;;;4922334;29;20252;-90
2021/11/12 02:04:59;;;;;;;3.87;2.17;;;10.90;99.90;;;;;;4922656;29;20700;-89
2021/11/12 02:07:30;;;;;;;2.27;2.07;;;11.00;99.90;;;;;;4922103;29;20245;-89
2021/11/12 02:10:06;;;;;;;2.67;2.20;;;11.00;99.90;;;;;;4921992;29;20206;-89
2021/11/12 02:12:46;;;;;;;2.23;1.83;;;11.00;99.90;;;;;;4922291;29;20271;-87
2021/11/12 02:15:19;;;;;;;3.50;1.47;;;11.10;99.90;;;;;;4922371;29;20216;-88
2021/11/12 02:18:00;;;;;;;2.70;1.50;;;11.20;99.90;;;;;;4923074;29;20248;-89
2021/11/12 02:20:36;;;;;;;2.40;1.40;;;11.20;99.90;;;;;;4920174;29;20288;-90
2021/11/12 02:23:12;;;;;;;1.17;1.07;;;11.20;99.90;;;;;;4920635;29;20212;-91
2021/11/12 02:25:44;;;;;;;1.20;1.10;;;11.20;99.90;;;;;;4920829;29;20205;-90
2021/11/12 02:28:16;;;;;;;1.30;1.13;;;11.30;99.90;;;;;;4907038;29;20292;-90
2021/11/12 02:30:51;;;;;;;3.63;1.10;;;11.30;99.90;;;;;;4905562;29;20257;-89
2021/11/12 02:33:25;;;;;;;5.33;1.50;;;11.40;99.90;;;;;;4932358;29;20303;-90
2021/11/12 02:36:07;;;;;;;2.13;1.20;;;11.40;99.90;;;;;;4940670;29;20212;-90
2021/11/12 02:41:09;;;;;;;2.60;1.30;;;11.40;99.90;;;;;;4972208;28;20204;-90
2021/11/12 02:43:43;;;;;;;1.57;1.47;;;11.50;99.90;;;;;;4975606;29;20211;-89
2021/11/12 02:46:22;;;;;;;1.60;1.50;;;11.50;99.90;;;;;;4979174;28;20219;-90
2021/11/12 02:48:55;;;;;;;1.87;1.00;;;11.70;99.90;;;;;;4978395;28;20225;-89
2021/11/12 02:51:30;;;;;;;1.17;0.80;;;11.80;99.90;;;;;;4977135;28;20317;-90
2021/11/12 02:54:02;;;;;;;0.87;0.80;;;12.00;99.90;;;;;;4971627;29;20225;-90
2021/11/12 02:56:36;;;;;;;1.37;0.50;;;12.10;99.90;;;;;;4972812;29;20200;-89
2021/11/12 02:59:10;;;;;;;1.00;0.60;;;12.20;99.90;;;;;;4954330;29;20208;-89
2021/11/12 03:01:45;;;;;;;0.50;0.50;;;12.30;99.90;;;;;;4966715;29;20208;-88
2021/11/12 03:04:19;;;;;;;1.67;0.80;;;12.30;99.90;;;;;;4973228;28;20218;-89
2021/11/12 03:06:53;;;;;;;0.83;0.80;;;12.40;99.90;;;;;;4973322;28;20203;-92
2021/11/12 03:09:27;;;;;;;0.90;0.70;;;12.40;99.90;;;;;;4972461;29;20200;-90
2021/11/12 03:12:03;;;;;;;0.90;0.80;;;12.50;99.90;;;;;;4970835;29;20251;-89
2021/11/12 03:14:37;;;;;;;0.60;0.43;;;12.50;99.90;;;;;;4973808;28;20222;-90
2021/11/12 03:17:16;;;;;;;0.60;0.60;;;12.50;99.90;;;;;;4957022;29;20221;-89
2021/11/12 03:19:48;;;;;;;1.13;0.70;;;12.60;99.90;;;;;;4964910;28;20203;-88
2021/11/12 03:22:23;;;;;;;0.80;0.67;;;12.60;99.90;;;;;;4977789;28;20214;-89
2021/11/12 03:24:59;;;;;;;1.50;0.60;;;12.50;99.90;;;;;;4974014;28;20222;-90
2021/11/12 03:27:37;;;;;;;0.70;0.60;;;12.50;99.90;;;;;;4972871;28;20235;-91
2021/11/12 04:18:31;;;;;;;0.40;0.37;;;13.30;99.90;;;;;;4971934;28;20212;-90
2021/11/12 04:21:15;;;;;;;0.70;0.43;;;13.40;99.90;;;;;;4972028;28;20212;-90
2021/11/12 05:09:38;;;;;;;0.40;0.40;;;13.70;99.90;;;;;;4957819;28;20224;-90
2021/11/12 05:35:06;;;;;;;0.50;0.40;;;13.90;99.90;;;;;;5014173;28;20202;-90
2021/11/12 05:43:47;;;;;;;1.07;0.30;;;14.00;99.90;;;;;;5027520;28;20193;-89
2021/11/12 05:46:37;;;;;;;0.73;0.47;;;14.00;99.90;;;;;;5034456;28;20273;-89
2021/11/12 05:52:14;;;;;;;0.40;0.40;;;14.10;99.90;;;;;;4997893;28;20251;-90
2021/11/12 05:55:06;;;;;;;2.60;1.10;;;14.10;99.90;;;;;;4991614;28;20201;-90
2021/11/12 05:57:40;;;;;;;0.40;0.40;;;14.10;99.90;;;;;;4996723;28;20194;-89
2021/11/12 06:00:18;;;;;;;0.40;0.40;;;14.10;99.90;;;;;;4998572;28;20203;-89
2021/11/12 06:02:52;;;;;;;1.83;0.60;;;14.10;99.90;;;;;;4996735;28;20222;-88
2021/11/12 06:05:25;;;;;;;0.57;0.57;;;14.10;99.90;;;;;;4998533;28;20190;-90
2021/11/12 06:07:59;;;;;;;4.67;4.37;;;14.20;99.90;;;;;;5316498;23;20241;-87
2021/11/12 06:10:34;;;;;;;1.77;0.37;;;14.20;99.90;;;;;;4971650;28;20224;-89
2021/11/12 06:13:06;;;;;;;0.33;0.30;;;14.10;99.90;;;;;;4964644;29;20255;-89
2021/11/12 06:15:41;;;;;;;0.37;0.30;;;13.90;99.90;;;;;;4965229;28;20255;-89
2021/11/12 06:18:13;;;;;;;0.40;0.40;;;13.70;99.90;;;;;;4962743;28;20210;-88
2021/11/12 06:20:45;;;;;;;2.83;0.40;;;13.50;99.90;;;;;;4966784;28;20279;-88
2021/11/12 06:23:17;;;;;;;0.53;0.40;;;13.40;99.90;;;;;;4965797;29;20227;-89
2021/11/12 06:25:50;;;;;;;0.40;0.40;;;13.40;99.90;;;;;;4968581;28;20224;-90
2021/11/12 06:28:25;;;;;;;0.40;0.40;;;13.40;99.90;;;;;;4967267;28;20982;-90
2021/11/12 06:31:02;;;;;;;0.30;0.30;;;13.60;99.90;;;;;;4966960;28;20222;-90
2021/11/12 06:33:35;;;;;;;1.43;0.90;;;13.60;99.90;;;;;;4963835;29;20291;-89
2021/11/12 06:36:07;;;;;;;4.40;4.10;;;13.60;99.90;;;;;;4964335;28;20227;-89
2021/11/12 06:38:39;;;;;;;0.47;0.40;;;13.60;99.90;;;;;;4944411;29;20243;-89
2021/11/12 06:41:13;;;;;;;0.20;0.20;;;13.80;99.90;;;;;;4944650;29;20280;-88
2021/11/12 06:43:56;;;;;;;0.80;0.30;;;13.80;99.90;;;;;;4946291;28;20567;-90
2021/11/12 06:49:30;;;;;;;0.20;0.20;;;13.90;99.90;;;;;;4965130;28;20251;-89
2021/11/12 06:52:04;;;;;;;0.43;0.43;;;13.90;99.90;;;;;;4974234;28;20258;-91
2021/11/12 06:54:38;;;;;;;4.47;0.60;;;14.00;99.90;;;;;;4964062;28;20725;-91
2021/11/12 06:57:23;;;;;;;0.40;0.40;;;13.90;99.90;;;;;;4961927;28;20274;-89
2021/11/12 06:59:57;;;;;;;10.43;9.33;;;13.90;99.90;;;;;;4962407;29;20770;-91
2021/11/12 07:02:30;;;;;;;0.93;0.50;;;13.90;99.90;;;;;;4960977;28;20215;-89
2021/11/12 07:05:01;;;;;;;1.30;0.40;;;13.90;99.90;;;;;;4961060;28;20686;-90
2021/11/12 07:07:33;;;;;;;2.27;0.57;;;13.90;99.90;;;;;;4960373;28;20231;-90
2021/11/12 07:10:05;;;;;;;1.80;0.40;;;13.90;99.90;;;;;;4960423;28;20215;-90
2021/11/12 07:12:36;;;;;;;0.50;0.30;;;13.90;99.90;;;;;;4960008;28;20212;-91
2021/11/12 07:15:09;;;;;;;0.50;0.40;;;13.80;99.90;;;;;;4958561;29;20334;-90
2021/11/12 07:17:42;;;;;;;0.40;0.40;;;13.80;99.90;;;;;;4961305;28;20662;-89
2021/11/12 07:20:15;;;;;;;0.30;0.30;;;13.80;99.90;;;;;;4974448;28;20200;-88
2021/11/12 07:22:46;;;;;;;0.40;0.40;;;13.80;99.90;;;;;;4966981;28;20207;-89
2021/11/12 07:25:18;;;;;;;0.87;0.30;;;13.70;99.90;;;;;;4971323;28;20215;-90
2021/11/12 07:27:50;;;;;;;0.77;0.40;;;13.60;99.90;;;;;;4959782;28;20271;-90
2021/11/12 07:30:25;;;;;;;0.50;0.50;;;13.50;99.90;;;;;;4960441;28;20278;-90
2021/11/12 07:33:04;;;;;;;0.77;0.40;;;13.50;99.90;;;;;;4960878;28;20628;-89
2021/11/12 07:35:38;;;;;;;0.57;0.43;;;13.60;99.90;;;;;;4960661;28;20239;-88
2021/11/12 07:38:14;;;;;;;0.67;0.30;;;13.50;99.90;;;;;;4960754;28;20212;-90
2021/11/12 07:41:13;;;;;;;0.63;0.47;;;13.50;99.90;;;;;;4960589;28;20210;-91
2021/11/12 07:46:41;;;;;;;5.63;5.23;;;13.50;99.90;;;;;;4975681;28;20219;-90
2021/11/12 07:49:16;;;;;;;0.30;0.30;;;13.80;99.90;;;;;;4973784;28;20231;-90
2021/11/12 07:51:49;;;;;;;0.30;0.20;;;13.90;99.90;;;;;;4960946;29;20234;-89
2021/11/12 07:54:20;;;;;;;0.63;0.30;;;14.00;99.90;;;;;;4942665;28;20244;-89
2021/11/12 07:56:53;;;;;;;0.20;0.20;;;14.10;99.90;;;;;;4960055;29;20216;-89
2021/11/12 07:59:25;;;;;;;0.40;0.20;;;14.10;99.90;;;;;;4962424;28;20200;-89
2021/11/12 08:01:57;;;;;;;1.10;0.30;;;14.00;99.90;;;;;;4961537;28;20223;-90
2021/11/12 08:04:31;;;;;;;0.30;0.20;;;14.10;99.90;;;;;;4959687;28;20216;-89
2021/11/12 08:07:02;;;;;;;0.20;0.20;;;14.00;99.90;;;;;;4960391;28;20342;-89
2021/11/12 08:09:36;;;;;;;0.97;0.33;;;14.00;99.90;;;;;;4962440;28;20500;-89
2021/11/12 08:12:10;;;;;;;0.30;0.30;;;13.90;99.90;;;;;;4961699;28;20219;-90
2021/11/12 08:14:52;;;;;;;0.37;0.30;;;13.90;99.90;;;;;;4956680;29;20239;-90
2021/11/12 08:17:32;;;;;;;0.40;0.30;;;13.90;99.90;;;;;;4957143;29;20214;-90
2021/11/12 08:20:12;;;;;;;1.33;0.30;;;13.90;99.90;;;;;;4941962;29;20262;-90
2021/11/12 08:22:47;;;;;;;1.90;0.40;;;13.90;99.90;;;;;;4958807;28;20271;-89
2021/11/12 08:25:22;;;;;;;0.40;0.40;;;13.90;99.90;;;;;;4964373;28;20214;-90
2021/11/12 08:33:33;;;;;;;0.20;0.20;;;13.90;99.90;;;;;;4958528;28;20627;-89
2021/11/12 08:36:26;;;;;;;0.20;0.20;;;13.90;99.90;;;;;;4957870;28;20239;-89
2021/11/12 08:39:11;;;;;;;0.10;0.10;;;13.90;99.90;;;;;;4975139;28;20718;-89
2021/11/12 08:41:45;;;;;;;0.70;0.40;;;13.80;99.90;;;;;;4955801;29;20231;-89
2021/11/12 08:44:24;;;;;;;0.30;0.30;;;13.80;99.90;;;;;;4958584;28;20629;-89
2021/11/12 08:47:04;;;;;;;0.50;0.40;;;13.80;99.90;;;;;;4957609;29;20203;-89
2021/11/12 08:49:38;;;;;;;0.20;0.20;;;13.70;99.90;;;;;;4958445;28;20298;-90
2021/11/12 08:52:15;;;;;;;0.30;0.30;;;13.60;99.90;;;;;;4958897;29;20230;-90
2021/11/12 08:54:48;;;;;;;2.37;0.50;;;13.70;99.90;;;;;;4957474;29;20238;-89
2021/11/12 08:57:21;;;;;;;0.80;0.30;;;13.80;99.90;;;;;;4957832;28;20199;-90
2021/11/12 08:59:54;;;;;;;0.40;0.30;;;13.80;99.90;;;;;;4958765;28;20216;-89
2021/11/12 09:02:27;;;;;;;0.40;0.20;;;13.90;99.90;;;;;;4958544;28;20212;-90
2021/11/12 09:04:59;;;;;;;2.90;0.30;;;13.80;99.90;;;;;;4959179;28;20211;-90
2021/11/12 09:07:34;;;;;;;2.20;2.10;;;13.80;99.90;;;;;;4957770;29;20207;-90
2021/11/12 09:10:06;;;;;;;0.83;0.30;;;13.80;99.90;;;;;;4957676;28;20232;-90
2021/11/12 09:12:38;;;;;;;0.27;0.27;;;13.80;99.90;;;;;;4956379;29;20290;-91
2021/11/12 09:15:13;;;;;;;0.50;0.20;;;13.70;99.90;;;;;;4956526;28;20267;-90
2021/11/12 09:17:47;;;;;;;0.60;0.30;;;13.70;99.90;;;;;;4962724;28;20246;-91
2021/11/12 09:20:25;;;;;;;0.37;0.20;;;13.70;99.90;;;;;;4969786;28;20208;-90
2021/11/12 09:23:01;;;;;;;3.23;2.60;;;13.70;99.90;;;;;;4957362;28;20291;-90
2021/11/12 09:25:32;;;;;;;3.67;3.40;;;13.70;99.90;;;;;;4950668;29;20271;-90
2021/11/12 09:28:03;;;;;;;0.20;0.17;;;13.70;99.90;;;;;;4957327;28;20204;-90
2021/11/12 09:30:36;;;;;;;0.30;0.30;;;13.70;99.90;;;;;;4957395;29;20596;-90
2021/11/12 09:33:09;;;;;;;0.67;0.20;;;13.70;99.90;;;;;;4967338;28;20229;-90
2021/11/12 09:35:41;;;;;;;0.50;0.30;;;13.70;99.90;;;;;;4976261;28;20241;-89
2021/11/12 09:38:15;;;;;;;0.43;0.30;;;13.80;99.90;;;;;;4969402;28;20697;-88
2021/11/12 09:40:46;;;;;;;1.80;0.30;;;13.70;99.90;;;;;;4961158;28;20659;-89
2021/11/12 09:43:19;;;;;;;0.30;0.30;;;13.80;99.90;;;;;;4961621;28;20211;-89
2021/11/12 09:45:51;;;;;;;0.20;0.20;;;13.80;99.90;;;;;;4960134;28;20212;-89
2021/11/12 09:48:23;;;;;;;2.47;0.50;;;13.70;99.90;;;;;;4961376;28;20207;-90
2021/11/12 09:50:55;;;;;;;0.20;0.20;;;13.80;99.90;;;;;;4961560;28;20227;-90
2021/11/12 09:53:29;;;;;;;1.33;1.27;;;13.80;99.90;;;;;;4961065;28;20195;-90
2021/11/12 09:56:00;;;;;;;0.60;0.27;;;13.80;99.90;;;;;;4967070;28;20336;-90
2021/11/12 09:58:33;;;;;;;0.80;0.20;;;13.80;99.90;;;;;;4976751;28;20228;-89
2021/11/12 10:01:06;;;;;;;0.53;0.50;;;13.80;99.90;;;;;;4978542;28;20229;-88
2021/11/12 10:03:45;;;;;;;0.40;0.40;;;13.80;99.90;;;;;;4964734;28;20294;-88
2021/11/12 10:06:23;;;;;;;0.20;0.20;;;13.70;99.90;;;;;;4961077;28;20211;-89
2021/11/12 10:08:57;;;;;;;2.17;2.07;;;13.70;99.90;;;;;;4973964;28;20532;-90
2021/11/12 10:11:31;;;;;;;0.30;0.30;;;13.70;99.90;;;;;;4979546;28;20319;-90
2021/11/12 10:14:37;;;;;;;0.43;0.30;;;13.60;99.90;;;;;;4966224;28;20204;-90
2021/11/12 10:17:10;;;;;;;0.53;0.53;;;13.60;99.90;;;;;;4959491;29;20554;-91
2021/11/12 10:19:46;;;;;;;2.77;2.67;;;13.60;99.90;;;;;;4962487;28;20227;-90
2021/11/12 10:22:18;;;;;;;0.73;0.30;;;13.70;99.90;;;;;;4965509;29;20202;-90
2021/11/12 10:24:58;;;;;;;1.00;0.33;;;13.60;99.90;;;;;;4960958;29;20203;-91
2021/11/12 10:27:32;;;;;;;1.90;0.40;;;13.60;99.90;;;;;;4960474;28;20238;-90
2021/11/12 10:30:10;;;;;;;0.50;0.50;;;13.60;99.90;;;;;;4961287;28;20231;-91
2021/11/12 10:32:46;;;;;;;0.20;0.20;;;13.60;99.90;;;;;;4959311;28;20215;-89
2021/11/12 10:35:25;;;;;;;0.20;0.20;;;13.60;99.90;;;;;;4959018;28;20239;-89
2021/11/12 10:38:07;;;;;;;0.90;0.50;;;13.60;99.90;;;;;;4959818;28;20646;-89
2021/11/12 10:40:41;;;;;;;0.73;0.30;;;13.60;99.90;;;;;;4960425;28;20595;-89
2021/11/12 10:43:23;;;;;;;0.63;0.57;;;13.60;99.90;;;;;;4959914;28;20204;-89
2021/11/12 10:46:06;;;;;;;1.17;0.40;;;13.60;99.90;;;;;;4958842;28;20234;-89
2021/11/12 10:48:39;;;;;;;1.70;0.47;;;13.70;99.90;;;;;;4960002;28;20284;-90
2021/11/12 10:51:19;;;;;;;1.33;0.40;;;13.70;99.90;;;;;;4962760;29;20242;-90
2021/11/12 10:53:52;;;;;;;2.40;2.30;;;13.80;99.90;;;;;;4960017;28;20211;-88
2021/11/12 10:56:46;;;;;;;0.30;0.30;;;13.80;99.90;;;;;;4958909;28;20239;-90
2021/11/12 10:59:17;;;;;;;0.40;0.40;;;13.80;99.90;;;;;;4959349;28;20212;-88
2021/11/12 11:01:50;;;;;;;0.60;0.40;;;13.80;99.90;;;;;;4962687;28;20254;-89
2021/11/12 11:04:23;;;;;;;6.00;5.40;;;13.90;99.90;;;;;;4959969;28;20211;-90
2021/11/12 11:06:54;;;;;;;3.00;2.87;;;13.90;99.90;;;;;;4959157;28;20227;-89
2021/11/12 11:09:39;;;;;;;0.57;0.40;;;13.90;99.90;;;;;;4959344;28;20236;-89
2021/11/12 11:12:32;;;;;;;0.50;0.50;;;13.90;99.90;;;;;;4960325;28;20231;-90
2021/11/12 11:15:30;;;;;;;0.40;0.40;;;13.90;99.90;;;;;;4959188;28;20218;-89
2021/11/12 11:18:20;;;;;;;0.50;0.50;;;13.90;99.90;;;;;;4946973;28;20298;-89
2021/11/12 11:20:59;;;;;;;14.83;14.13;;;14.00;99.90;;;;;;4958959;28;20264;-89
2021/11/12 11:23:32;;;;;;;7.00;6.40;;;14.00;99.90;;;;;;4970423;28;20298;-89
2021/11/12 11:26:06;;;;;;;1.40;0.50;;;14.00;99.90;;;;;;4976334;28;20305;-90
2021/11/12 11:28:40;;;;;;;0.40;0.40;;;14.00;99.90;;;;;;4955501;28;20240;-89
2021/11/12 11:31:14;;;;;;;1.57;0.30;;;14.00;99.90;;;;;;4959055;28;20262;-90
2021/11/12 11:33:47;;;;;;;1.40;0.40;;;14.00;99.90;;;;;;4959687;28;20517;-90
2021/11/12 11:36:20;;;;;;;0.47;0.43;;;14.00;99.90;;;;;;4958022;28;20576;-90
2021/11/12 11:38:53;;;;;;;0.47;0.47;;;14.00;99.90;;;;;;4958848;28;20308;-89
2021/11/12 11:41:26;;;;;;;2.57;0.43;;;14.00;99.90;;;;;;4959080;28;20208;-89
2021/11/12 11:44:01;;;;;;;1.43;0.47;;;14.00;99.90;;;;;;4959086;28;20314;-88
2021/11/12 11:46:38;;;;;;;0.40;0.40;;;14.10;99.90;;;;;;4957739;28;20282;-89
2021/11/12 11:49:14;;;;;;;2.00;0.73;;;14.00;99.90;;;;;;4957625;28;20306;-88
2021/11/12 11:51:52;;;;;;;3.23;3.03;;;14.00;99.90;;;;;;4958057;29;20207;-89
2021/11/12 11:54:25;;;;;;;1.23;0.50;;;14.10;99.90;;;;;;4959122;28;20250;-89
2021/11/12 11:56:57;;;;;;;1.03;0.50;;;14.10;99.90;;;;;;4958287;28;20231;-88
2021/11/12 11:59:35;;;;;;;0.70;0.70;;;14.00;99.90;;;;;;4951693;28;20212;-89
2021/11/12 12:02:07;;;;;;;0.60;0.60;;;14.00;99.90;;;;;;4959247;28;20238;-90
2021/11/12 12:04:40;;;;;;;1.33;0.70;;;14.00;99.90;;;;;;4960479;28;20211;-89
2021/11/12 12:07:26;;;;;;;0.50;0.50;;;14.10;99.90;;;;;;4963625;28;20267;-88
2021/11/12 12:10:16;;;;;;;2.00;0.70;;;14.10;99.90;;;;;;4970811;28;20226;-89
2021/11/12 12:13:05;;;;;;;1.00;0.60;;;14.10;99.90;;;;;;4975580;28;20227;-91
2021/11/12 12:15:45;;;;;;;2.67;0.80;;;14.10;99.90;;;;;;4951251;29;20196;-90
2021/11/12 12:18:24;;;;;;;1.70;0.60;;;14.10;99.90;;;;;;4952828;28;20246;-89
2021/11/12 12:34:50;;;;;;;1.80;0.63;;;14.30;99.90;;;;;;4963258;28;20218;-89
2021/11/12 13:21:05;;;;;;;45.07;28.27;;;14.30;99.90;;;;;;4961046;28;20307;-88
2021/11/12 13:23:52;;;;;;;2.73;2.50;;;14.30;99.90;;;;;;4961534;28;20231;-88
2021/11/12 13:26:23;;;;;;;1.57;1.47;;;14.20;99.90;;;;;;4960914;29;20227;-89
2021/11/12 13:28:55;;;;;;;5.63;4.23;;;14.20;99.90;;;;;;4961622;28;20270;-89
2021/11/12 13:31:27;;;;;;;1.83;1.73;;;14.20;99.90;;;;;;4961677;28;20204;-89
2021/11/12 13:34:02;;;;;;;1.87;1.83;;;14.20;99.90;;;;;;4959602;29;20215;-89
2021/11/12 13:36:50;;;;;;;1.47;1.47;;;14.20;99.90;;;;;;4959275;29;20246;-89
2021/11/12 13:39:23;;;;;;;1.57;1.57;;;14.20;99.90;;;;;;4943332;28;20212;-89
2021/11/12 13:41:59;;;;;;;5.37;4.87;;;14.20;99.90;;;;;;4977683;28;20219;-90
2021/11/12 13:44:35;;;;;;;1.37;1.37;;;14.20;99.90;;;;;;4970514;28;20239;-90
2021/11/12 13:47:11;;;;;;;1.63;1.60;;;14.20;99.90;;;;;;4960286;28;20213;-88
2021/11/12 13:49:43;;;;;;;1.80;1.57;;;14.20;99.90;;;;;;4960564;28;20640;-87
2021/11/12 13:52:20;;;;;;;0.60;0.60;;;14.10;99.90;;;;;;4961215;28;20247;-87
2021/11/12 13:54:55;;;;;;;1.33;1.33;;;14.10;99.90;;;;;;4961212;29;20315;-88
2021/11/12 13:57:28;;;;;;;2.53;2.43;;;14.10;99.90;;;;;;4960444;28;20290;-87
2021/11/12 14:00:02;;;;;;;2.80;2.70;;;14.00;99.90;;;;;;4952302;29;20300;-87
2021/11/12 14:02:55;;;;;;;4.70;4.50;;;14.00;99.90;;;;;;4962659;28;20215;-88
2021/11/12 14:05:26;;;;;;;1.10;1.10;;;14.00;99.90;;;;;;4959846;28;20626;-88
2021/11/12 14:08:08;;;;;;;2.93;2.70;;;13.90;99.90;;;;;;4960572;28;20232;-89
2021/11/12 14:10:41;;;;;;;1.27;1.27;;;13.90;99.90;;;;;;4966817;29;20215;-90
2021/11/12 14:13:15;;;;;;;1.23;1.23;;;13.90;99.90;;;;;;4961085;28;20232;-89
2021/11/12 14:16:01;;;;;;;1.13;1.13;;;13.90;99.90;;;;;;4941116;29;20656;-90
2021/11/12 14:18:39;;;;;;;1.67;1.50;;;13.90;99.90;;;;;;4961731;29;20250;-90
2021/11/12 14:21:20;;;;;;;6.03;5.70;;;14.00;99.90;;;;;;4958445;29;20264;-89
2021/11/12 14:24:06;;;;;;;1.33;1.30;;;14.00;99.90;;;;;;5010390;23;20213;-89
2021/11/12 14:26:46;;;;;;;1.40;1.40;;;14.00;99.90;;;;;;4942084;29;20234;-90
2021/11/12 14:29:44;;;;;;;2.73;2.53;;;14.00;99.90;;;;;;4946295;29;20286;-89
2021/11/12 14:35:17;;;;;;;1.57;1.47;;;14.00;99.90;;;;;;4979323;28;20223;-90
2021/11/12 14:46:35;;;;;;;1.50;1.20;;;14.00;99.90;;;;;;4977414;28;20250;-90
2021/11/12 14:49:15;;;;;;;1.77;1.67;;;14.00;99.90;;;;;;4966639;28;20207;-90
2021/11/12 14:51:58;;;;;;;1.70;1.37;;;13.90;99.90;;;;;;4960326;28;20239;-89
2021/11/12 14:54:32;;;;;;;1.93;1.30;;;14.00;99.90;;;;;;4958922;28;20223;-89
2021/11/12 14:57:09;;;;;;;1.23;1.23;;;14.00;99.90;;;;;;4958846;28;20235;-88
2021/11/12 14:59:42;;;;;;;3.87;1.43;;;14.00;99.90;;;;;;4963164;28;20642;-89
2021/11/12 15:02:13;;;;;;;6.27;3.50;;;14.00;99.90;;;;;;4940483;29;20219;-89
2021/11/12 15:04:45;;;;;;;1.77;1.47;;;14.00;99.90;;;;;;4940735;29;20220;-89
2021/11/12 15:07:22;;;;;;;1.63;1.53;;;14.00;99.90;;;;;;4953000;29;20212;-89
2021/11/12 15:09:54;;;;;;;1.57;1.57;;;14.00;99.90;;;;;;4959432;28;20243;-88
2021/11/12 15:12:28;;;;;;;2.30;1.60;;;14.00;99.90;;;;;;4959295;28;20291;-89
2021/11/12 15:15:00;;;;;;;1.60;1.50;;;14.00;99.90;;;;;;4959513;28;20199;-91
2021/11/12 15:17:31;;;;;;;1.60;1.60;;;14.00;99.90;;;;;;4961065;28;20238;-89
2021/11/12 15:20:10;;;;;;;1.57;1.47;;;14.00;99.90;;;;;;4956547;28;20227;-89
2021/11/12 15:22:53;;;;;;;1.50;1.50;;;14.00;99.90;;;;;;4958832;29;20303;-89
2021/11/12 15:25:30;;;;;;;2.00;1.33;;;14.00;99.90;;;;;;4957661;28;20263;-89
2021/11/12 15:28:10;;;;;;;4.03;1.40;;;13.90;99.90;;;;;;4965462;28;20264;-88
2021/11/12 15:30:51;;;;;;;1.27;1.13;;;14.00;99.90;;;;;;4959546;28;20286;-88
2021/11/12 15:33:23;;;;;;;3.70;3.60;;;14.00;99.90;;;;;;4972140;28;20204;-87
2021/11/12 15:35:57;;;;;;;1.33;1.27;;;14.00;99.90;;;;;;4979126;28;20211;-87
2021/11/12 15:38:33;;;;;;;4.87;4.67;;;14.00;99.90;;;;;;4975570;28;20235;-90
2021/11/12 15:41:09;;;;;;;3.40;1.40;;;14.00;99.90;;;;;;4970843;29;20616;-89
2021/11/12 15:43:52;;;;;;;1.73;1.50;;;14.00;99.90;;;;;;4971252;28;20219;-90
2021/11/12 15:46:25;;;;;;;2.50;1.47;;;14.00;99.90;;;;;;4979301;28;20207;-89
2021/11/12 15:48:57;;;;;;;1.77;1.43;;;13.90;99.90;;;;;;4970542;28;20231;-89
2021/11/12 15:51:39;;;;;;;1.93;1.83;;;13.90;99.90;;;;;;4970811;28;20215;-89
2021/11/12 15:57:28;;;;;;;1.60;1.50;;;13.90;99.90;;;;;;4985653;28;20211;-89
2021/11/12 16:03:11;;;;;;;1.60;1.50;;;13.80;99.90;;;;;;4952859;29;20208;-89
2021/11/12 16:11:39;;;;;;;2.03;1.57;;;13.80;99.90;;;;;;4979435;28;20686;-87
2021/11/12 16:14:13;;;;;;;1.90;1.50;;;13.80;99.90;;;;;;4975049;28;20214;-88
2021/11/12 16:19:38;;;;;;;1.67;1.57;;;13.80;99.90;;;;;;4949650;28;20573;-89
2021/11/12 16:28:20;;;;;;;4.20;1.50;;;13.70;99.90;;;;;;5050283;27;2744633;-89
2021/11/12 16:30:59;;;;;;;11.00;1.97;;;13.70;99.90;;;;;;5116042;28;20213;-89
2021/11/12 16:33:31;;;;;;;6.30;1.60;;;13.80;99.90;;;;;;5127588;28;20198;-89
2021/11/12 16:36:05;;;;;;;1.53;1.43;;;13.70;99.90;;;;;;5122676;28;20222;-89
2021/11/12 16:38:37;;;;;;;5.57;2.43;;;13.70;99.90;;;;;;5133686;28;20194;-89
2021/11/12 16:41:12;;;;;;;2.20;1.60;;;13.70;99.90;;;;;;5129793;28;20240;-89
2021/11/12 16:44:03;;;;;;;3.13;1.33;;;13.70;99.90;;;;;;5106974;28;20203;-89
2021/11/12 16:46:48;;;;;;;2.00;1.40;;;13.70;99.90;;;;;;5130693;28;20182;-89
2021/11/12 16:49:26;;;;;;;4.10;1.50;;;13.70;99.90;;;;;;5128831;28;20186;-89
2021/11/12 16:55:08;;;;;;;1.53;1.40;;;13.70;99.90;;;;;;5126239;28;20539;-87
2021/11/12 16:57:49;;;;;;;2.50;1.43;;;13.70;99.90;;;;;;5126836;28;20293;-87
2021/11/12 17:00:47;;;;;;;8.00;2.13;;;13.70;99.90;;;;;;5129892;28;20214;-87
2021/11/12 17:03:54;;;;;;;2.53;1.40;;;13.70;99.90;;;;;;5110772;28;20205;-87
2021/11/12 17:06:27;;;;;;;6.27;1.50;;;13.70;99.90;;;;;;5096561;28;20222;-88
2021/11/12 17:09:13;;;;;;;3.57;1.77;;;13.70;99.90;;;;;;5106055;28;20640;-88
2021/11/12 17:11:48;;;;;;;1.97;1.70;;;13.70;99.90;;;;;;5120966;28;20266;-87
2021/11/12 17:20:39;;;;;;;5.90;2.03;;;13.70;99.90;;;;;;5110865;28;20554;-87
2021/11/12 17:45:54;;;;;;;2.73;2.00;;;13.50;99.90;;;;;;5097784;28;20234;-86
2021/11/12 17:48:32;;;;;;;1.90;1.80;;;13.50;99.90;;;;;;5092220;28;20199;-88
2021/11/12 18:02:26;;;;;;;4.03;1.90;;;13.30;99.90;;;;;;5077661;28;20212;-87
2021/11/12 18:22:13;;;;;;;2.03;1.43;;;13.30;99.90;;;;;;5015655;28;20205;-87
2021/11/12 21:46:54;;;;;;;8.60;4.90;;;11.60;99.90;;;;;;5000936;28;20238;-89
2021/11/12 21:49:26;;;;;;;3.90;1.83;;;11.60;99.90;;;;;;4990627;28;20291;-88
2021/11/12 21:52:00;;;;;;;4.03;1.63;;;11.60;99.90;;;;;;5002306;28;20213;-88
2021/11/12 21:54:32;;;;;;;7.13;1.87;;;11.60;99.90;;;;;;5046044;23;20206;-88
2021/11/12 21:57:04;;;;;;;4.23;2.50;;;11.60;99.90;;;;;;5043383;28;20213;-89
2021/11/12 21:59:36;;;;;;;4.83;2.20;;;11.60;99.90;;;;;;5054377;28;20256;-89
2021/11/12 22:02:08;;;;;;;5.73;4.87;;;11.60;99.90;;;;;;5040455;28;20216;-88